Kankakee, IL

4:29 AM CST on December 16, 2019 (GMT -0600)
Greater Kankakee

Weather History for KIKK - October, 2019

Change the Weather History Date:

Sunday, October 13, 2019

  Actual Average Record
Temperature  
Mean Temperature 50 °F -  
Max Temperature 62 °F 66 °F 82 °F (1985)
Min Temperature 39 °F 38 °F 25 °F (1988)
Degree Days  
Heating Degree Days 15    
Moisture  
Dew Point 33 °F    
Average Humidity 55    
Maximum Humidity 82    
Minimum Humidity 26    
Precipitation  
Precipitation 0.00 in - - ()
Sea Level Pressure  
Sea Level Pressure 29.89 in    
Wind  
Wind Speed 14 mph (WSW)    
Max Wind Speed 26 mph    
Max Gust Speed 37 mph    
Visibility 10 miles    
Events      
Averages and records for this station are not official NWS values.
T = Trace of Precipitation, MM = Missing Value Source: NWS Daily Summary

Daily Weather History Graph

Daily Weather History Graph

Search for Another Location

Airport or City:

Astronomy

Oct. 13, 2019 Rise Set
Actual Time 7:00 AM CDT 6:14 PM CDT
Civil Twilight 6:32 AM CDT 6:41 PM CDT
Nautical Twilight 6:00 AM CDT 7:13 PM CDT
Astronomical Twilight 5:29 AM CDT 7:45 PM CDT
Moon 6:36 PM CDT (10/13) 6:33 AM CDT (10/13)
Length of Visible Light 12h 08m
Length of Day
11h 13m
Full, 100% of the Moon is Illuminated
Oct 13
Full
Oct 13
Full
Oct 21
Last Quarter
Oct 27
New
Nov 4
First Quarter

Hourly Weather History & Observations

Time (CDT) Temp. Windchill Dew Point Humidity Pressure Visibility Wind Dir Wind Speed Gust Speed Precip Events Conditions
12:15 AM 48.7 °F - 32.4 °F 53% 29.87 in 10.0 mi SSW 17.3 mph 27.6 mph N/A   Clear
12:35 AM 48.6 °F - 32.5 °F 54% 29.87 in 10.0 mi SSW 17.3 mph 26.5 mph N/A   Clear
12:55 AM 48.2 °F - 32.9 °F 55% 29.87 in 10.0 mi SSW 16.1 mph 25.3 mph N/A   Clear
1:15 AM 47.5 °F - 32.9 °F 57% 29.87 in 10.0 mi SSW 17.3 mph 23.0 mph N/A   Scattered Clouds
1:35 AM 47.1 °F - 33.1 °F 58% 29.87 in 10.0 mi SSW 15.0 mph 23.0 mph N/A   Clear
1:55 AM 46.6 °F - 33.3 °F 60% 29.87 in 10.0 mi SSW 12.7 mph 23.0 mph N/A   Clear
2:15 AM 46.4 °F 40.1 °F 33.4 °F 61% 29.87 in 10.0 mi SSW 15.0 mph 23.0 mph N/A   Clear
2:35 AM 45.7 °F 40.6 °F 33.8 °F 63% 29.87 in 10.0 mi SSW 10.4 mph 17.3 mph N/A   Clear
2:55 AM 45.1 °F 39.5 °F 33.8 °F 65% 29.87 in 10.0 mi SW 11.5 mph 17.3 mph N/A   Clear
3:15 AM 45.0 °F 39.3 °F 33.8 °F 65% 29.87 in 10.0 mi SSW 11.5 mph - N/A   Clear
3:35 AM 45.0 °F 38.5 °F 33.8 °F 65% 29.87 in 10.0 mi SSW 13.8 mph 20.7 mph N/A   Clear
3:55 AM 44.6 °F 38.1 °F 34.0 °F 66% 29.87 in 10.0 mi SSW 13.8 mph - N/A   Clear
4:15 AM 44.1 °F 37.7 °F 34.2 °F 68% 29.87 in 10.0 mi SW 12.7 mph 20.7 mph N/A   Clear
4:35 AM 43.3 °F 37.7 °F 34.3 °F 71% 29.87 in 10.0 mi SW 10.4 mph - N/A   Clear
4:55 AM 43.0 °F 36.8 °F 34.3 °F 72% 29.87 in 10.0 mi SSW 11.5 mph 17.3 mph N/A   Clear
5:15 AM 42.8 °F 36.6 °F 34.3 °F 72% 29.87 in 10.0 mi SW 11.5 mph 17.3 mph N/A   Clear
5:35 AM 42.4 °F 35.7 °F 34.3 °F 73% 29.87 in 10.0 mi SSW 12.7 mph 17.3 mph N/A   Clear
5:55 AM 41.9 °F 36.3 °F 34.5 °F 75% 29.87 in 10.0 mi SW 9.2 mph - N/A   Clear
6:15 AM 41.5 °F 36.4 °F 34.5 °F 76% 29.88 in 10.0 mi WSW 8.1 mph - N/A   Clear
6:35 AM 39.6 °F 34.7 °F 34.3 °F 82% 29.89 in 10.0 mi WSW 6.9 mph - N/A   Clear
6:55 AM 39.2 °F 34.2 °F 34.0 °F 82% 29.89 in 10.0 mi SW 6.9 mph - N/A   Clear
7:15 AM 39.6 °F 34.0 °F 34.2 °F 81% 29.89 in 10.0 mi SW 8.1 mph - N/A   Clear
7:35 AM 40.3 °F 34.4 °F 34.3 °F 79% 29.89 in 10.0 mi SW 9.2 mph - N/A   Clear
7:55 AM 41.2 °F 35.0 °F 34.7 °F 78% 29.89 in 10.0 mi WSW 10.4 mph - N/A   Clear
8:15 AM 41.9 °F 35.0 °F 35.4 °F 78% 29.90 in 10.0 mi WSW 12.7 mph - N/A   Clear
8:35 AM 43.7 °F 38.1 °F 36.0 °F 74% 29.90 in 10.0 mi WSW 10.4 mph - N/A   Clear
8:55 AM 45.5 °F 39.6 °F 36.3 °F 70% 29.90 in 10.0 mi WSW 12.7 mph - N/A   Clear
9:15 AM 46.9 °F - 35.1 °F 63% 29.91 in 10.0 mi West 12.7 mph 18.4 mph N/A   Clear
9:35 AM 48.0 °F - 32.2 °F 54% 29.91 in 10.0 mi West 15.0 mph - N/A   Clear
9:55 AM 48.2 °F - 31.6 °F 53% 29.92 in 10.0 mi West 18.4 mph 24.2 mph N/A   Clear
10:15 AM 49.5 °F - 31.6 °F 50% 29.92 in 10.0 mi West 19.6 mph 23.0 mph N/A   Clear
10:35 AM 50.9 °F - 30.6 °F 46% 29.92 in 10.0 mi West 19.6 mph 25.3 mph N/A   Clear
10:55 AM 51.8 °F - 31.6 °F 46% 29.91 in 10.0 mi West 15.0 mph 20.7 mph N/A   Clear
11:15 AM 52.3 °F - 31.5 °F 45% 29.91 in 10.0 mi West 15.0 mph 21.9 mph N/A   Clear
11:35 AM 53.1 °F - 31.1 °F 43% 29.90 in 10.0 mi WSW 15.0 mph - N/A   Clear
11:55 AM 54.5 °F - 30.6 °F 40% 29.90 in 10.0 mi West 16.1 mph - N/A   Clear
12:15 PM 54.7 °F - 29.5 °F 38% 29.89 in 10.0 mi West 13.8 mph 23.0 mph N/A   Clear
12:35 PM 55.8 °F - 30.0 °F 37% 29.88 in 10.0 mi West 13.8 mph 21.9 mph N/A   Clear
12:55 PM 56.7 °F - 29.8 °F 36% 29.87 in 10.0 mi WSW 18.4 mph - N/A   Clear
1:15 PM 58.1 °F - 29.7 °F 34% 29.86 in 10.0 mi West 19.6 mph 25.3 mph N/A   Clear
1:35 PM 58.8 °F - 27.9 °F 31% 29.84 in 10.0 mi SW 20.7 mph 27.6 mph N/A   Clear
1:55 PM 60.1 °F - 28.9 °F 31% 29.84 in 10.0 mi WSW 20.7 mph 27.6 mph N/A   Clear
2:15 PM 60.3 °F - 28.0 °F 29% 29.83 in 10.0 mi WSW 23.0 mph 34.5 mph N/A   Clear
2:35 PM 61.2 °F - 27.7 °F 28% 29.83 in 10.0 mi West 21.9 mph 36.8 mph N/A   Clear
2:55 PM 61.5 °F - 27.9 °F 28% 29.83 in 10.0 mi WSW 21.9 mph 29.9 mph N/A   Clear
3:15 PM 61.5 °F - 26.1 °F 26% 29.83 in 10.0 mi West 24.2 mph 35.7 mph N/A   Clear
3:35 PM 61.9 °F - 27.5 °F 27% 29.84 in 10.0 mi West 26.5 mph 35.7 mph N/A   Clear
3:55 PM 61.3 °F - 27.7 °F 28% 29.84 in 10.0 mi West 26.5 mph 32.2 mph N/A   Clear
4:15 PM 60.1 °F - 28.8 °F 30% 29.84 in 10.0 mi West 21.9 mph 27.6 mph N/A   Clear
4:35 PM 59.0 °F - 27.3 °F 30% 29.84 in 10.0 mi West 18.4 mph 28.8 mph N/A   Scattered Clouds
4:55 PM 58.3 °F - 30.0 °F 34% 29.85 in 10.0 mi West 16.1 mph 20.7 mph N/A   Scattered Clouds
5:15 PM 57.4 °F - 30.9 °F 37% 29.86 in 10.0 mi West 15.0 mph 20.7 mph N/A   Mostly Cloudy
5:35 PM 56.8 °F - 31.8 °F 39% 29.86 in 10.0 mi West 12.7 mph - N/A   Overcast
6:15 PM 55.4 °F - 33.8 °F 44% 29.88 in 10.0 mi West 11.5 mph - N/A   Scattered Clouds
6:35 PM 54.5 °F - 34.2 °F 46% 29.89 in 10.0 mi WNW 8.1 mph - N/A   Clear
6:55 PM 53.2 °F - 35.1 °F 50% 29.89 in 10.0 mi WNW 6.9 mph - N/A   Clear
7:15 PM 51.3 °F - 35.4 °F 55% 29.91 in 10.0 mi NNW 12.7 mph 17.3 mph N/A   Clear
7:35 PM 49.8 °F - 34.7 °F 56% 29.92 in 10.0 mi NNW 13.8 mph - N/A   Clear
7:55 PM 48.6 °F - 34.7 °F 59% 29.93 in 10.0 mi NNW 10.4 mph - N/A   Clear
8:15 PM 47.7 °F - 33.6 °F 58% 29.95 in 10.0 mi NNW 10.4 mph - N/A   Clear
8:35 PM 47.7 °F - 33.4 °F 58% 29.95 in 10.0 mi NNW 9.2 mph - N/A   Clear
8:55 PM 47.5 °F - 33.1 °F 57% 29.95 in 10.0 mi NNW 8.1 mph - N/A   Clear
9:15 PM 47.3 °F - 33.1 °F 58% 29.96 in 10.0 mi NW 8.1 mph - N/A   Clear
9:35 PM 46.9 °F - 33.4 °F 59% 29.96 in 10.0 mi NW 4.6 mph - N/A   Clear
9:55 PM 46.2 °F 45.0 °F 33.6 °F 61% 29.97 in 10.0 mi NW 3.5 mph - N/A   Mostly Cloudy
10:15 PM 45.9 °F - 34.0 °F 63% 29.97 in 10.0 mi Calm Calm - N/A   Overcast
10:35 PM 46.0 °F - 34.3 °F 64% 29.97 in 10.0 mi Calm Calm - N/A   Overcast
10:55 PM 45.7 °F - 35.2 °F 67% 29.97 in 10.0 mi Calm Calm - N/A   Overcast
11:15 PM 45.5 °F - 34.3 °F 65% 29.98 in 10.0 mi Calm Calm - N/A   Overcast
11:35 PM 45.9 °F 44.6 °F 34.7 °F 65% 29.97 in 10.0 mi West 3.5 mph - N/A   Overcast
11:55 PM 44.8 °F 43.3 °F 34.9 °F 68% 29.98 in 10.0 mi WSW 3.5 mph - N/A   Overcast